Time;durP1;ratioP1;P1;durP2;ratioP2;P2;SDS_P1;SDS_P2;PMS_P1;PMS_P2;Temp;Humidity;BMP_temperature;BMP_pressure;BME280_temperature;BME280_humidity;BME280_pressure;Samples;Min_cycle;Max_cycle;Signal;HPM_P1;HPM_P2
2022/10/29 00:01:43;;;;;;;16.40;9.50;;;14.50;99.90;;;;;;5056383;28;20174;-68
2022/10/29 00:04:10;;;;;;;16.65;9.13;;;14.50;99.90;;;;;;5055907;28;20184;-68
2022/10/29 00:06:37;;;;;;;20.08;9.07;;;14.50;99.90;;;;;;5055610;28;20209;-68
2022/10/29 00:09:04;;;;;;;19.77;9.95;;;14.50;99.90;;;;;;5055953;28;20655;-67
2022/10/29 00:11:30;;;;;;;18.33;8.32;;;14.50;99.90;;;;;;5055859;28;20270;-67
2022/10/29 00:13:58;;;;;;;17.23;8.82;;;14.40;99.90;;;;;;5055580;28;20169;-67
2022/10/29 00:16:27;;;;;;;19.27;9.43;;;14.40;99.90;;;;;;5055612;28;20202;-68
2022/10/29 00:18:54;;;;;;;19.67;9.30;;;14.40;99.90;;;;;;5054555;28;20705;-68
2022/10/29 00:21:22;;;;;;;17.67;8.93;;;14.30;99.90;;;;;;5055785;28;20224;-68
2022/10/29 00:23:48;;;;;;;19.33;8.35;;;14.30;99.90;;;;;;5055411;28;20185;-70
2022/10/29 00:26:15;;;;;;;14.57;7.50;;;14.20;99.90;;;;;;5055264;28;20682;-68
2022/10/29 00:28:41;;;;;;;19.10;8.80;;;14.20;99.90;;;;;;5054979;28;20253;-68
2022/10/29 00:31:14;;;;;;;15.27;9.13;;;14.10;99.90;;;;;;5055232;28;20203;-67
2022/10/29 00:33:39;;;;;;;20.90;8.35;;;14.10;99.90;;;;;;5055577;28;20225;-68
2022/10/29 00:36:11;;;;;;;19.15;8.70;;;14.20;99.90;;;;;;5055278;28;20244;-68
2022/10/29 00:38:36;;;;;;;14.32;8.13;;;14.20;99.90;;;;;;5055144;28;20197;-67
2022/10/29 00:41:05;;;;;;;18.55;8.65;;;14.20;99.90;;;;;;5054994;28;20213;-68
2022/10/29 00:43:36;;;;;;;16.92;7.88;;;14.20;99.90;;;;;;5055009;28;20175;-68
2022/10/29 00:46:14;;;;;;;17.73;7.25;;;14.20;99.90;;;;;;5054859;28;20201;-67
2022/10/29 00:48:49;;;;;;;15.88;7.88;;;14.30;99.90;;;;;;5055145;28;20186;-67
2022/10/29 00:51:16;;;;;;;16.05;7.90;;;14.40;99.90;;;;;;5055002;28;20170;-67
2022/10/29 00:54:01;;;;;;;13.63;7.88;;;14.40;99.90;;;;;;5055427;28;20158;-67
2022/10/29 00:56:29;;;;;;;16.67;7.95;;;14.40;99.90;;;;;;5055079;28;20540;-67
2022/10/29 00:58:55;;;;;;;16.42;8.32;;;14.40;99.90;;;;;;5054716;28;20189;-67
2022/10/29 01:01:21;;;;;;;19.55;9.43;;;14.40;99.90;;;;;;5054768;28;20634;-67
2022/10/29 01:03:47;;;;;;;16.00;8.35;;;14.40;99.90;;;;;;5054779;28;20657;-67
2022/10/29 01:06:14;;;;;;;18.92;8.32;;;14.50;99.90;;;;;;5054683;28;20209;-67
2022/10/29 01:08:39;;;;;;;20.88;9.13;;;14.50;99.90;;;;;;5054469;28;20220;-67
2022/10/29 01:11:42;;;;;;;17.83;8.40;;;14.60;99.90;;;;;;5054649;28;20623;-67
2022/10/29 01:14:34;;;;;;;14.90;7.97;;;14.70;99.90;;;;;;5054445;28;20648;-67
2022/10/29 01:17:14;;;;;;;20.65;9.07;;;14.70;99.90;;;;;;5054948;28;20632;-67
2022/10/29 01:20:04;;;;;;;17.73;8.65;;;14.70;99.90;;;;;;5053270;28;20175;-67
2022/10/29 01:23:08;;;;;;;21.17;9.27;;;14.70;99.90;;;;;;5055043;28;20194;-67
2022/10/29 01:26:02;;;;;;;18.05;9.43;;;14.70;99.90;;;;;;5050304;28;20635;-67
2022/10/29 01:28:52;;;;;;;20.73;9.40;;;14.70;99.90;;;;;;5054444;28;20638;-67
2022/10/29 01:31:25;;;;;;;20.40;9.48;;;14.70;99.90;;;;;;5054271;28;20222;-68
2022/10/29 01:34:09;;;;;;;18.00;8.38;;;14.60;99.90;;;;;;5054174;28;20179;-67
2022/10/29 01:37:01;;;;;;;18.42;9.23;;;14.60;99.90;;;;;;5054331;28;20197;-67
2022/10/29 01:39:43;;;;;;;17.55;8.75;;;14.60;99.90;;;;;;5053101;28;20179;-67
2022/10/29 01:42:29;;;;;;;18.67;9.25;;;14.60;99.90;;;;;;5054498;28;20235;-68
2022/10/29 01:44:59;;;;;;;15.48;8.98;;;14.50;99.90;;;;;;5052533;28;20293;-67
2022/10/29 01:47:31;;;;;;;17.17;8.50;;;14.50;99.90;;;;;;5052690;28;20284;-66
2022/10/29 01:50:01;;;;;;;15.95;7.70;;;14.40;99.90;;;;;;5053951;28;20155;-66
2022/10/29 01:52:31;;;;;;;18.38;8.27;;;14.40;99.90;;;;;;5052219;28;20265;-67
2022/10/29 01:54:57;;;;;;;19.02;7.88;;;14.40;99.90;;;;;;5052512;28;20191;-67
2022/10/29 01:57:31;;;;;;;17.35;8.32;;;14.40;99.90;;;;;;5053728;28;20685;-67
2022/10/29 02:00:19;;;;;;;14.45;8.05;;;14.30;99.90;;;;;;5053729;28;20187;-67
2022/10/29 02:03:13;;;;;;;16.98;7.63;;;14.20;99.90;;;;;;5053751;28;20205;-67
2022/10/29 02:05:59;;;;;;;13.23;7.80;;;14.20;99.90;;;;;;5053662;28;20284;-67
2022/10/29 02:08:39;;;;;;;17.08;7.70;;;14.20;99.90;;;;;;5052405;28;20198;-67
2022/10/29 02:11:15;;;;;;;15.65;7.85;;;14.20;99.90;;;;;;5053951;28;20615;-66
2022/10/29 02:13:56;;;;;;;16.52;7.50;;;14.20;99.90;;;;;;5053701;28;20185;-67
2022/10/29 02:16:23;;;;;;;13.80;7.70;;;14.20;99.90;;;;;;5053608;28;20198;-67
2022/10/29 02:18:49;;;;;;;13.75;7.65;;;14.10;99.90;;;;;;5052304;28;20697;-67
2022/10/29 02:21:17;;;;;;;15.02;7.88;;;14.10;99.90;;;;;;5053536;28;20178;-67
2022/10/29 02:23:43;;;;;;;15.45;8.23;;;14.10;99.90;;;;;;5053809;28;20174;-67
2022/10/29 02:26:09;;;;;;;18.25;8.18;;;14.20;99.90;;;;;;5053382;28;20199;-67
2022/10/29 02:28:35;;;;;;;17.08;8.13;;;14.10;99.90;;;;;;5053293;28;20210;-67
2022/10/29 02:31:00;;;;;;;18.90;8.48;;;14.20;99.90;;;;;;5053559;28;20170;-67
2022/10/29 02:33:26;;;;;;;16.80;8.32;;;14.20;99.90;;;;;;5053768;28;20194;-67
2022/10/29 02:35:52;;;;;;;19.30;8.75;;;14.20;99.90;;;;;;5053533;28;20190;-67
2022/10/29 02:38:17;;;;;;;19.10;8.05;;;14.10;99.90;;;;;;5053444;28;20635;-67
2022/10/29 02:40:43;;;;;;;22.48;7.50;;;14.10;99.90;;;;;;5053342;28;20190;-67
2022/10/29 02:43:09;;;;;;;17.63;8.02;;;14.00;99.90;;;;;;5051994;28;20186;-67
2022/10/29 02:45:35;;;;;;;17.75;8.43;;;14.00;99.90;;;;;;5053289;28;20212;-67
2022/10/29 02:48:00;;;;;;;17.00;8.13;;;13.90;99.90;;;;;;5054014;28;20301;-67
2022/10/29 02:50:26;;;;;;;19.88;8.13;;;13.90;99.90;;;;;;5053251;28;20179;-67
2022/10/29 02:52:52;;;;;;;16.88;8.50;;;13.90;99.90;;;;;;5054054;28;20194;-67
2022/10/29 02:55:17;;;;;;;19.05;8.93;;;13.90;99.90;;;;;;5052009;28;20734;-67
2022/10/29 02:57:44;;;;;;;16.73;8.50;;;13.80;99.90;;;;;;5053303;28;20211;-67
2022/10/29 03:00:11;;;;;;;16.52;8.73;;;13.70;99.90;;;;;;5053239;28;20175;-67
2022/10/29 03:02:37;;;;;;;15.25;8.77;;;13.70;99.90;;;;;;5053220;28;20610;-67
2022/10/29 03:05:02;;;;;;;14.40;8.05;;;13.60;99.90;;;;;;5055065;28;20293;-66
2022/10/29 03:07:28;;;;;;;20.23;8.20;;;13.70;99.90;;;;;;5057457;28;20205;-67
2022/10/29 03:09:54;;;;;;;17.23;8.32;;;13.60;99.90;;;;;;5057397;28;20182;-67
2022/10/29 03:12:19;;;;;;;17.77;8.48;;;13.60;99.90;;;;;;5057514;28;20174;-67
2022/10/29 03:14:45;;;;;;;14.82;8.48;;;13.60;99.90;;;;;;5057230;28;20557;-67
2022/10/29 03:17:11;;;;;;;14.85;8.23;;;13.60;99.90;;;;;;5057131;28;20277;-67
2022/10/29 03:19:37;;;;;;;19.58;8.82;;;13.60;99.90;;;;;;5057220;28;20535;-67
2022/10/29 03:22:02;;;;;;;14.50;8.35;;;13.60;99.90;;;;;;5057323;28;20175;-67
2022/10/29 03:24:28;;;;;;;16.75;8.18;;;13.50;99.90;;;;;;5057166;28;20221;-67
2022/10/29 03:26:54;;;;;;;18.80;8.65;;;13.50;99.90;;;;;;5056830;28;20651;-67
2022/10/29 03:29:19;;;;;;;16.02;8.45;;;13.40;99.90;;;;;;5056862;28;20198;-67
2022/10/29 03:31:45;;;;;;;15.00;8.05;;;13.40;99.90;;;;;;5057009;28;20277;-67
2022/10/29 03:34:11;;;;;;;17.23;7.88;;;13.40;99.90;;;;;;5056741;28;20175;-67
2022/10/29 03:36:37;;;;;;;15.75;8.80;;;13.50;99.90;;;;;;5056875;28;20257;-67
2022/10/29 03:39:02;;;;;;;17.10;8.75;;;13.50;99.90;;;;;;5055425;28;20178;-67
2022/10/29 03:41:28;;;;;;;10.55;7.95;;;13.50;99.90;;;;;;5055405;28;20194;-67
2022/10/29 03:43:54;;;;;;;21.42;8.18;;;13.50;99.90;;;;;;5057014;28;20175;-67
2022/10/29 03:46:19;;;;;;;19.58;8.48;;;13.50;99.90;;;;;;5055134;28;20564;-67
2022/10/29 03:48:49;;;;;;;14.82;7.38;;;13.50;99.90;;;;;;5056752;28;20202;-67
2022/10/29 03:51:14;;;;;;;15.57;7.95;;;13.50;99.90;;;;;;5057176;28;20233;-67
2022/10/29 03:53:40;;;;;;;16.67;8.55;;;13.50;99.90;;;;;;5056584;28;20198;-67
2022/10/29 03:56:07;;;;;;;21.67;8.10;;;13.40;99.90;;;;;;5056523;28;20189;-67
2022/10/29 03:58:32;;;;;;;12.75;7.38;;;13.20;99.90;;;;;;5056399;28;20186;-67
2022/10/29 04:01:04;;;;;;;15.77;7.95;;;13.20;99.90;;;;;;5056886;28;20670;-67
2022/10/29 04:03:31;;;;;;;14.35;7.30;;;13.20;99.90;;;;;;5056990;28;20184;-67
2022/10/29 04:05:58;;;;;;;14.60;7.97;;;13.20;99.90;;;;;;5056289;28;20273;-67
2022/10/29 04:08:25;;;;;;;17.80;7.28;;;13.20;99.90;;;;;;5056421;28;20209;-67
2022/10/29 04:10:51;;;;;;;17.70;7.68;;;13.20;99.90;;;;;;5054985;28;20261;-68
2022/10/29 04:13:18;;;;;;;17.80;8.15;;;13.20;99.90;;;;;;5056380;28;20182;-67
2022/10/29 04:15:44;;;;;;;13.60;8.50;;;13.30;99.90;;;;;;5056732;28;20338;-67
2022/10/29 04:18:10;;;;;;;13.85;8.63;;;13.30;99.90;;;;;;5056852;28;20638;-67
2022/10/29 04:20:37;;;;;;;21.55;8.18;;;13.30;99.90;;;;;;5057531;28;20221;-68
2022/10/29 04:23:04;;;;;;;16.08;8.50;;;13.40;99.90;;;;;;5056132;28;20258;-67
2022/10/29 04:25:30;;;;;;;18.02;8.73;;;13.40;99.90;;;;;;5056227;28;20260;-67
2022/10/29 04:27:56;;;;;;;13.38;7.50;;;13.30;99.90;;;;;;5056217;28;20273;-67
2022/10/29 04:30:23;;;;;;;21.48;8.20;;;13.30;99.90;;;;;;5055420;28;20174;-67
2022/10/29 04:32:49;;;;;;;13.93;8.32;;;13.20;99.90;;;;;;5054241;28;20175;-67
2022/10/29 04:35:15;;;;;;;20.77;8.57;;;13.20;99.90;;;;;;5055706;28;20679;-67
2022/10/29 04:37:41;;;;;;;18.65;9.00;;;13.20;99.90;;;;;;5055710;28;20214;-67
2022/10/29 04:40:07;;;;;;;13.10;8.00;;;13.20;99.90;;;;;;5055939;28;20257;-67
2022/10/29 04:42:37;;;;;;;18.15;8.75;;;13.20;99.90;;;;;;5055309;28;20218;-68
2022/10/29 04:45:05;;;;;;;17.98;8.68;;;13.20;99.90;;;;;;5055314;28;20190;-68
2022/10/29 04:47:30;;;;;;;15.18;7.60;;;13.20;99.90;;;;;;5055433;28;20198;-67
2022/10/29 04:49:56;;;;;;;15.90;7.80;;;13.20;99.90;;;;;;5056265;28;20605;-67
2022/10/29 04:52:22;;;;;;;15.32;7.75;;;13.20;99.90;;;;;;5056586;28;20261;-67
2022/10/29 04:54:47;;;;;;;15.68;8.15;;;13.10;99.90;;;;;;5055898;28;20239;-67
2022/10/29 04:57:13;;;;;;;17.10;9.05;;;13.00;99.90;;;;;;5055839;28;20183;-68
2022/10/29 04:59:39;;;;;;;16.20;7.35;;;13.00;99.90;;;;;;5054193;28;20198;-68
2022/10/29 05:02:04;;;;;;;13.85;8.05;;;13.00;99.90;;;;;;5055251;28;20175;-68
2022/10/29 05:04:30;;;;;;;20.95;8.55;;;13.00;99.90;;;;;;5055594;28;20195;-68
2022/10/29 05:06:56;;;;;;;19.55;8.73;;;13.00;99.90;;;;;;5054997;28;20175;-67
2022/10/29 05:09:22;;;;;;;16.83;8.55;;;13.10;99.90;;;;;;5055159;28;20662;-67
2022/10/29 05:11:47;;;;;;;23.13;8.48;;;13.00;99.90;;;;;;5054856;28;20186;-68
2022/10/29 05:14:13;;;;;;;16.27;8.13;;;13.00;99.90;;;;;;5055029;28;20224;-67
2022/10/29 05:16:39;;;;;;;15.25;8.52;;;13.00;99.90;;;;;;5055447;28;20527;-68
2022/10/29 05:19:05;;;;;;;16.30;9.02;;;13.00;99.90;;;;;;5054887;28;20259;-68
2022/10/29 05:21:31;;;;;;;15.57;8.40;;;12.90;99.90;;;;;;5054949;28;20171;-67
2022/10/29 05:23:57;;;;;;;13.10;8.20;;;12.90;99.90;;;;;;5054718;28;20186;-67
2022/10/29 05:26:23;;;;;;;20.20;9.02;;;13.00;99.90;;;;;;5054505;28;20226;-67
2022/10/29 05:28:52;;;;;;;19.58;8.52;;;13.00;99.90;;;;;;5052332;28;20199;-67
2022/10/29 05:31:18;;;;;;;18.75;9.32;;;13.00;99.90;;;;;;5054782;28;20171;-67
2022/10/29 05:33:44;;;;;;;19.73;9.40;;;13.10;99.90;;;;;;5055102;28;20177;-67
2022/10/29 05:36:10;;;;;;;15.80;9.38;;;13.10;99.90;;;;;;5054352;28;20191;-67
2022/10/29 05:38:35;;;;;;;17.25;9.25;;;13.10;99.90;;;;;;5054717;28;20251;-67
2022/10/29 05:41:01;;;;;;;16.90;8.30;;;13.10;99.90;;;;;;5054483;28;20178;-68
2022/10/29 05:43:27;;;;;;;18.00;8.80;;;13.10;99.90;;;;;;5054377;28;20241;-68
2022/10/29 05:45:53;;;;;;;15.38;9.00;;;13.10;99.90;;;;;;5054154;28;20198;-67
2022/10/29 05:48:19;;;;;;;17.90;9.35;;;13.10;99.90;;;;;;5054391;28;20202;-67
2022/10/29 05:50:45;;;;;;;19.02;9.23;;;13.10;99.90;;;;;;5054415;28;20155;-68
2022/10/29 05:53:12;;;;;;;17.38;8.95;;;13.00;99.90;;;;;;5054325;28;20159;-67
2022/10/29 05:55:38;;;;;;;17.15;8.90;;;12.90;99.90;;;;;;5054514;28;20190;-68
2022/10/29 05:58:08;;;;;;;18.50;8.77;;;12.90;99.90;;;;;;5054088;28;20746;-68
2022/10/29 06:00:37;;;;;;;17.80;7.78;;;12.80;99.90;;;;;;5053846;28;20170;-67
2022/10/29 06:03:03;;;;;;;15.55;7.85;;;12.80;99.90;;;;;;5054058;28;20175;-68
2022/10/29 06:05:29;;;;;;;12.77;8.18;;;12.80;99.90;;;;;;5052771;28;20221;-68
2022/10/29 06:07:55;;;;;;;14.35;8.40;;;12.80;99.90;;;;;;5053686;28;20327;-67
2022/10/29 06:10:22;;;;;;;13.32;8.20;;;12.90;99.90;;;;;;5052474;28;20177;-67
2022/10/29 06:12:48;;;;;;;14.68;8.00;;;12.90;99.90;;;;;;5052441;28;20182;-68
2022/10/29 06:15:14;;;;;;;13.57;7.80;;;12.90;99.90;;;;;;5053510;28;20273;-67
2022/10/29 06:17:41;;;;;;;18.30;7.90;;;12.90;99.90;;;;;;5054036;28;20595;-68
2022/10/29 06:20:08;;;;;;;12.90;7.25;;;12.90;99.90;;;;;;5054201;28;20159;-68
2022/10/29 06:22:34;;;;;;;13.20;7.32;;;12.90;99.90;;;;;;5053477;28;20183;-68
2022/10/29 06:25:00;;;;;;;13.90;7.47;;;12.90;99.90;;;;;;5053770;28;20535;-67
2022/10/29 06:27:26;;;;;;;14.73;6.78;;;13.00;99.90;;;;;;5053528;28;20255;-68
2022/10/29 06:29:51;;;;;;;11.50;7.10;;;13.00;99.90;;;;;;5053757;28;20181;-67
2022/10/29 06:32:17;;;;;;;14.73;8.15;;;13.00;99.90;;;;;;5053695;28;20179;-67
2022/10/29 06:34:43;;;;;;;16.17;7.80;;;13.00;99.90;;;;;;5053337;28;20201;-68
2022/10/29 06:37:09;;;;;;;13.00;7.78;;;13.10;99.90;;;;;;5053482;28;20202;-67
2022/10/29 06:39:34;;;;;;;15.68;8.05;;;13.10;99.90;;;;;;5053619;28;20643;-67
2022/10/29 06:42:00;;;;;;;22.83;8.07;;;13.10;99.90;;;;;;5053423;28;20274;-67
2022/10/29 06:44:26;;;;;;;19.10;7.70;;;13.20;99.90;;;;;;5053855;28;20243;-67
2022/10/29 06:46:51;;;;;;;17.98;8.40;;;13.20;99.90;;;;;;5053186;28;20166;-67
2022/10/29 06:49:17;;;;;;;18.70;8.90;;;13.20;99.90;;;;;;5053813;28;20174;-67
2022/10/29 06:51:43;;;;;;;15.63;9.07;;;13.20;99.90;;;;;;5054096;28;20667;-68
2022/10/29 06:54:09;;;;;;;16.42;8.88;;;13.20;99.90;;;;;;5053301;28;20224;-67
2022/10/29 06:56:34;;;;;;;16.23;9.52;;;13.20;99.90;;;;;;5053290;28;20175;-67
2022/10/29 06:59:00;;;;;;;16.35;8.50;;;13.10;99.90;;;;;;5053027;28;20651;-67
2022/10/29 07:01:27;;;;;;;14.48;8.57;;;13.20;99.90;;;;;;5052518;28;20186;-67
2022/10/29 07:03:53;;;;;;;15.88;8.27;;;13.20;99.90;;;;;;5053618;28;20186;-67
2022/10/29 07:06:20;;;;;;;17.73;8.48;;;13.20;99.90;;;;;;5053372;28;20194;-68
2022/10/29 07:08:46;;;;;;;19.55;9.43;;;13.30;99.90;;;;;;5053581;28;20194;-68
2022/10/29 07:11:11;;;;;;;15.27;9.65;;;13.40;99.90;;;;;;5053726;28;20510;-68
2022/10/29 07:13:37;;;;;;;21.90;10.02;;;13.50;99.90;;;;;;5052919;28;20198;-67
2022/10/29 07:16:03;;;;;;;20.52;9.10;;;13.50;99.90;;;;;;5053056;28;20191;-68
2022/10/29 07:18:31;;;;;;;18.67;9.15;;;13.50;99.90;;;;;;5052951;28;20182;-67
2022/10/29 07:20:57;;;;;;;11.93;8.15;;;13.50;99.90;;;;;;5052987;28;20174;-68
2022/10/29 07:23:23;;;;;;;18.50;9.23;;;13.50;99.90;;;;;;5053117;28;20175;-68
2022/10/29 07:25:52;;;;;;;16.17;8.95;;;13.60;99.90;;;;;;5053803;28;20205;-67
2022/10/29 07:28:19;;;;;;;16.70;9.50;;;13.60;99.90;;;;;;5051448;28;20217;-68
2022/10/29 07:30:47;;;;;;;15.60;8.45;;;13.70;99.90;;;;;;5052855;28;20177;-67
2022/10/29 07:33:13;;;;;;;15.43;8.95;;;13.70;99.90;;;;;;5053360;28;20650;-68
2022/10/29 07:35:40;;;;;;;21.88;9.18;;;13.70;99.90;;;;;;5052790;28;20228;-68
2022/10/29 07:38:07;;;;;;;21.35;9.30;;;13.80;99.90;;;;;;5051456;28;20192;-68
2022/10/29 07:40:33;;;;;;;13.43;8.70;;;13.80;99.90;;;;;;5053028;28;20255;-68
2022/10/29 07:42:59;;;;;;;14.70;9.10;;;13.80;99.90;;;;;;5054015;28;20181;-68
2022/10/29 07:45:25;;;;;;;16.05;8.93;;;13.80;99.90;;;;;;5051489;28;20202;-68
2022/10/29 07:48:02;;;;;;;17.90;8.88;;;13.90;99.90;;;;;;5052856;28;20202;-68
2022/10/29 07:50:29;;;;;;;19.75;8.20;;;14.00;99.90;;;;;;5053540;28;20176;-68
2022/10/29 07:52:57;;;;;;;13.38;8.50;;;14.00;99.90;;;;;;5056280;28;20640;-68
2022/10/29 07:55:23;;;;;;;16.92;8.68;;;14.00;99.90;;;;;;5056359;28;20247;-67
2022/10/29 07:57:57;;;;;;;14.15;7.60;;;14.10;99.90;;;;;;5056142;28;20190;-67
2022/10/29 08:00:24;;;;;;;14.02;8.38;;;14.10;99.90;;;;;;5056201;28;20565;-67
2022/10/29 08:02:53;;;;;;;14.35;8.07;;;14.20;99.90;;;;;;5056471;28;20250;-67
2022/10/29 08:05:18;;;;;;;16.42;9.57;;;14.30;99.90;;;;;;5054862;28;20297;-68
2022/10/29 08:07:44;;;;;;;17.50;9.68;;;14.40;99.90;;;;;;5054651;28;20296;-68
2022/10/29 08:10:10;;;;;;;19.50;9.77;;;14.40;99.90;;;;;;5055565;28;20261;-68
2022/10/29 08:12:36;;;;;;;14.85;8.70;;;14.50;99.90;;;;;;5056072;28;20186;-68
2022/10/29 08:15:01;;;;;;;17.67;9.57;;;14.60;99.90;;;;;;5055916;28;20251;-68
2022/10/29 08:17:31;;;;;;;13.82;7.93;;;14.70;99.90;;;;;;5055832;28;20305;-76
2022/10/29 08:19:57;;;;;;;16.33;9.32;;;14.80;99.90;;;;;;5054816;28;20213;-75
2022/10/29 08:22:22;;;;;;;24.55;9.20;;;15.00;99.90;;;;;;5054407;28;20268;-75
2022/10/29 08:24:48;;;;;;;19.05;9.88;;;15.10;99.90;;;;;;5054540;28;20547;-75
2022/10/29 08:27:14;;;;;;;11.88;8.23;;;15.30;99.90;;;;;;5056104;28;20678;-76
2022/10/29 08:29:40;;;;;;;14.25;8.43;;;15.40;99.90;;;;;;5054608;28;20232;-75
2022/10/29 08:32:06;;;;;;;15.68;8.63;;;15.50;99.90;;;;;;5054791;28;20186;-68
2022/10/29 08:34:31;;;;;;;14.65;7.97;;;15.50;99.90;;;;;;5054055;28;20191;-67
2022/10/29 08:36:57;;;;;;;11.98;7.70;;;15.60;99.90;;;;;;5055478;28;20225;-68
2022/10/29 08:39:23;;;;;;;14.40;8.32;;;15.70;99.90;;;;;;5055594;28;20592;-67
2022/10/29 08:41:56;;;;;;;13.45;8.13;;;15.80;99.90;;;;;;5055441;28;20540;-67
2022/10/29 08:44:32;;;;;;;14.00;8.48;;;15.90;99.90;;;;;;5053843;28;20265;-68
2022/10/29 08:47:12;;;;;;;16.33;9.07;;;16.10;99.90;;;;;;5054997;28;20201;-68
2022/10/29 08:49:59;;;;;;;17.58;8.02;;;16.30;99.90;;;;;;5054595;28;20576;-67
2022/10/29 08:52:35;;;;;;;19.05;7.82;;;16.50;99.90;;;;;;5056137;28;20194;-67
2022/10/29 08:55:16;;;;;;;12.15;7.35;;;16.60;99.90;;;;;;5055592;28;20654;-67
2022/10/29 08:58:01;;;;;;;16.98;7.95;;;16.60;99.90;;;;;;5053615;28;20194;-67
2022/10/29 09:00:37;;;;;;;12.55;7.47;;;16.70;99.90;;;;;;5054779;28;20235;-68
2022/10/29 09:03:10;;;;;;;14.15;7.57;;;16.80;99.90;;;;;;5052684;28;20677;-68
2022/10/29 09:05:56;;;;;;;13.43;7.38;;;16.90;99.90;;;;;;5055090;28;20237;-63
2022/10/29 09:08:39;;;;;;;13.27;6.97;;;17.00;99.90;;;;;;5051378;28;20218;-67
2022/10/29 09:11:20;;;;;;;9.98;6.68;;;17.20;99.90;;;;;;5055544;28;20196;-67
2022/10/29 09:14:11;;;;;;;14.57;7.20;;;17.30;99.90;;;;;;5035113;28;20608;-69
2022/10/29 09:16:51;;;;;;;14.48;7.65;;;17.40;99.90;;;;;;5035389;28;20631;-69
2022/10/29 09:19:31;;;;;;;13.45;7.47;;;17.50;99.90;;;;;;5033724;28;20515;-68
2022/10/29 09:22:12;;;;;;;12.93;7.22;;;17.60;99.90;;;;;;5035979;28;20244;-68
2022/10/29 09:24:49;;;;;;;11.80;6.70;;;17.60;99.90;;;;;;5033173;28;20195;-68
2022/10/29 09:27:36;;;;;;;15.82;6.72;;;17.60;99.90;;;;;;5033165;28;20297;-69
2022/10/29 09:30:02;;;;;;;15.93;7.20;;;17.70;99.90;;;;;;5034258;28;20697;-71
2022/10/29 09:32:33;;;;;;;10.63;7.03;;;17.80;99.90;;;;;;5033437;28;20180;-68
2022/10/29 09:35:13;;;;;;;13.95;6.70;;;17.90;99.90;;;;;;5034253;28;20194;-69
2022/10/29 09:38:17;;;;;;;12.63;6.35;;;18.10;99.90;;;;;;5034688;28;20233;-69
2022/10/29 09:40:43;;;;;;;21.08;8.05;;;18.30;99.90;;;;;;5030496;28;20187;-69
2022/10/29 09:43:37;;;;;;;15.27;6.22;;;18.40;99.90;;;;;;5051486;28;20253;-68
2022/10/29 09:46:30;;;;;;;17.33;6.93;;;18.60;99.90;;;;;;5053990;28;20247;-68
2022/10/29 09:49:02;;;;;;;13.65;6.38;;;18.80;99.90;;;;;;5052693;28;20616;-68
2022/10/29 09:51:35;;;;;;;16.65;6.20;;;19.00;99.90;;;;;;5053846;28;20216;-69
2022/10/29 09:54:01;;;;;;;9.55;5.32;;;19.10;99.90;;;;;;5054057;28;20604;-69
2022/10/29 09:56:27;;;;;;;10.48;5.50;;;19.20;99.90;;;;;;5053731;28;20671;-68
2022/10/29 09:59:06;;;;;;;13.30;5.63;;;19.30;99.90;;;;;;5053511;28;20224;-69
2022/10/29 10:01:31;;;;;;;14.77;5.40;;;19.40;99.90;;;;;;5054138;28;20163;-69
2022/10/29 10:04:05;;;;;;;13.75;5.20;;;19.50;99.90;;;;;;5053669;28;20288;-69
2022/10/29 10:06:54;;;;;;;8.13;4.90;;;19.60;99.90;;;;;;5054502;28;20190;-69
2022/10/29 10:09:20;;;;;;;11.85;4.93;;;19.60;99.90;;;;;;5053528;28;20190;-69
2022/10/29 10:11:51;;;;;;;13.55;4.90;;;19.60;99.90;;;;;;5053585;28;20182;-69
2022/10/29 10:14:21;;;;;;;14.80;4.88;;;19.80;99.90;;;;;;5051944;28;20220;-69
2022/10/29 10:17:01;;;;;;;10.80;5.03;;;19.90;99.90;;;;;;5052347;28;20658;-69
2022/10/29 10:19:30;;;;;;;12.85;5.13;;;20.00;99.90;;;;;;5053496;28;20530;-69
2022/10/29 10:22:00;;;;;;;11.27;5.25;;;20.10;99.90;;;;;;5054264;28;20186;-69
2022/10/29 10:24:34;;;;;;;14.77;6.07;;;20.10;99.90;;;;;;5053447;28;20194;-69
2022/10/29 10:27:18;;;;;;;15.70;6.72;;;20.10;99.90;;;;;;5053494;28;20170;-69
2022/10/29 10:30:04;;;;;;;13.68;6.10;;;20.10;99.90;;;;;;5051983;28;20188;-69
2022/10/29 10:32:30;;;;;;;15.90;5.10;;;20.00;99.90;;;;;;5053170;28;20178;-69
2022/10/29 10:35:22;;;;;;;15.80;5.57;;;19.90;99.90;;;;;;5053129;28;20190;-69
2022/10/29 10:37:49;;;;;;;11.73;5.20;;;19.80;99.90;;;;;;5052167;28;20192;-69
2022/10/29 10:40:23;;;;;;;12.85;6.85;;;19.80;99.90;;;;;;5053774;28;20178;-69
2022/10/29 10:42:52;;;;;;;15.85;5.90;;;19.90;99.90;;;;;;5053509;28;20273;-69
2022/10/29 10:45:25;;;;;;;15.45;6.15;;;20.00;99.90;;;;;;5051793;28;20202;-69
2022/10/29 10:47:56;;;;;;;18.08;5.80;;;20.10;99.90;;;;;;5053434;28;20197;-64
2022/10/29 10:50:30;;;;;;;11.88;5.93;;;20.20;99.90;;;;;;5053164;28;20238;-64
2022/10/29 10:53:03;;;;;;;13.32;4.65;;;20.30;99.90;;;;;;5053295;28;20175;-64
2022/10/29 10:55:37;;;;;;;11.77;5.50;;;20.40;99.90;;;;;;5053265;28;20229;-64
2022/10/29 10:58:35;;;;;;;16.27;4.95;;;20.50;99.90;;;;;;5053179;28;20201;-64
2022/10/29 11:01:03;;;;;;;13.82;4.45;;;20.50;99.90;;;;;;5051617;28;20301;-64
2022/10/29 11:03:44;;;;;;;12.43;4.57;;;20.50;99.90;;;;;;5052872;28;20205;-64
2022/10/29 11:06:17;;;;;;;12.45;4.85;;;20.50;99.90;;;;;;5053010;28;20201;-64
2022/10/29 11:08:53;;;;;;;8.20;4.20;;;20.50;99.90;;;;;;5052841;28;20218;-64
2022/10/29 11:11:36;;;;;;;13.75;4.82;;;20.40;99.90;;;;;;5052784;28;20216;-64
2022/10/29 11:14:31;;;;;;;15.27;4.90;;;20.40;99.90;;;;;;5052966;28;20170;-65
2022/10/29 11:17:00;;;;;;;14.15;5.28;;;20.40;99.90;;;;;;5053073;28;20562;-64
2022/10/29 11:19:39;;;;;;;13.30;5.07;;;20.60;99.90;;;;;;5053015;28;20624;-64
2022/10/29 11:22:48;;;;;;;13.57;5.32;;;20.80;99.90;;;;;;5053060;28;20182;-64
2022/10/29 11:25:28;;;;;;;13.45;4.13;;;20.90;99.90;;;;;;5040839;28;20211;-64
2022/10/29 11:28:37;;;;;;;19.27;4.85;;;21.00;99.90;;;;;;5055486;28;20206;-64
2022/10/29 11:31:28;;;;;;;15.07;4.85;;;21.10;99.90;;;;;;5053667;28;20182;-64
2022/10/29 11:34:05;;;;;;;20.30;4.60;;;21.50;99.90;;;;;;5056581;28;20171;-64
2022/10/29 11:36:40;;;;;;;11.63;4.60;;;21.80;99.90;;;;;;5056455;28;20194;-64
2022/10/29 11:39:19;;;;;;;12.60;4.10;;;21.90;99.90;;;;;;5056437;28;20249;-64
2022/10/29 11:41:59;;;;;;;13.88;4.38;;;22.00;99.90;;;;;;5056602;28;20566;-64
2022/10/29 11:44:26;;;;;;;13.48;4.20;;;22.00;99.90;;;;;;5056175;28;20178;-64
2022/10/29 11:47:03;;;;;;;10.27;4.00;;;22.00;99.90;;;;;;5056228;28;20205;-64
2022/10/29 11:49:47;;;;;;;11.82;4.78;;;22.10;99.90;;;;;;5056109;28;20639;-64
2022/10/29 11:52:54;;;;;;;9.70;4.18;;;22.30;99.90;;;;;;5054965;28;20175;-64
2022/10/29 11:55:44;;;;;;;19.13;4.78;;;22.40;99.90;;;;;;5056304;28;20228;-64
2022/10/29 11:58:39;;;;;;;16.00;4.78;;;22.40;99.90;;;;;;5055888;28;20194;-64
2022/10/29 12:01:07;;;;;;;12.45;4.00;;;22.50;99.90;;;;;;5055509;28;20190;-64
2022/10/29 12:03:50;;;;;;;11.98;4.03;;;22.60;99.90;;;;;;5054668;28;20179;-64
2022/10/29 12:06:43;;;;;;;13.18;4.75;;;22.60;99.90;;;;;;5055943;28;20201;-64
2022/10/29 12:09:35;;;;;;;10.45;3.90;;;22.50;99.90;;;;;;5055702;28;20241;-64
2022/10/29 12:12:29;;;;;;;15.85;4.03;;;22.50;99.90;;;;;;5055652;28;20183;-64
2022/10/29 12:15:19;;;;;;;14.38;4.18;;;22.60;99.90;;;;;;5045602;28;20551;-65
2022/10/29 12:18:02;;;;;;;14.30;4.80;;;22.70;99.90;;;;;;5056095;28;20162;-69
2022/10/29 12:20:48;;;;;;;11.13;4.30;;;22.70;99.90;;;;;;5055972;28;20161;-69
2022/10/29 12:23:38;;;;;;;13.55;4.25;;;23.00;99.90;;;;;;5054445;28;20623;-69
2022/10/29 12:26:31;;;;;;;15.77;4.75;;;23.00;99.90;;;;;;5055815;28;20250;-69
2022/10/29 12:29:19;;;;;;;13.20;4.05;;;23.00;99.90;;;;;;5055424;28;20195;-69
2022/10/29 12:32:10;;;;;;;15.68;4.53;;;23.10;99.90;;;;;;5054244;28;20175;-69
2022/10/29 12:35:01;;;;;;;10.52;4.25;;;23.10;99.90;;;;;;5051352;28;20237;-69
2022/10/29 12:38:00;;;;;;;15.43;4.57;;;22.90;99.90;;;;;;5055705;28;20228;-69
2022/10/29 12:40:30;;;;;;;9.48;4.13;;;22.80;99.90;;;;;;5055970;28;20166;-69
2022/10/29 12:43:05;;;;;;;15.50;5.13;;;22.70;99.90;;;;;;5055610;28;20252;-69
2022/10/29 12:45:53;;;;;;;10.20;4.55;;;22.70;99.90;;;;;;5055226;28;20754;-69
2022/10/29 12:48:24;;;;;;;13.02;4.50;;;22.60;99.90;;;;;;5055084;28;20232;-69
2022/10/29 12:51:00;;;;;;;14.77;4.57;;;22.50;99.90;;;;;;5055100;28;20620;-69
2022/10/29 12:53:45;;;;;;;17.27;4.20;;;22.40;99.90;;;;;;5055354;28;20167;-69
2022/10/29 12:56:12;;;;;;;13.35;4.47;;;22.20;99.90;;;;;;5055274;28;20193;-69
2022/10/29 12:58:48;;;;;;;11.15;4.15;;;22.00;99.90;;;;;;5054851;28;20689;-68
2022/10/29 13:01:25;;;;;;;11.43;5.10;;;21.90;99.90;;;;;;5053780;28;20194;-68
2022/10/29 13:03:54;;;;;;;14.35;4.75;;;21.80;99.90;;;;;;5054832;28;20213;-69